createdAt,value
2023-01-28T00:00:56.009Z,97094.69
2023-01-28T00:03:25.404Z,97090.97
2023-01-28T00:05:54.204Z,97091.72
2023-01-28T00:08:22.248Z,97089.13
2023-01-28T00:10:50.280Z,97081.41
2023-01-28T00:13:18.305Z,97086.09
2023-01-28T00:15:46.287Z,97081.91
2023-01-28T00:18:14.684Z,97085.63
2023-01-28T00:20:44.043Z,97090.81
2023-01-28T00:23:12.144Z,97092.16
2023-01-28T00:25:40.130Z,97088.97
2023-01-28T00:28:08.330Z,97097.75
2023-01-28T00:30:38.034Z,97093.13
2023-01-28T00:33:06.873Z,97093.19
2023-01-28T00:35:34.897Z,97088.28
2023-01-28T00:38:07.319Z,97087.16
2023-01-28T00:40:35.586Z,97088.00
2023-01-28T00:43:04.689Z,97085.38
2023-01-28T00:45:32.736Z,97084.34
2023-01-28T00:48:01.415Z,97081.31
2023-01-28T00:50:29.521Z,97080.75
2023-01-28T00:52:57.550Z,97090.97
2023-01-28T00:55:28.361Z,97083.50
2023-01-28T00:57:56.376Z,97082.66
2023-01-28T01:00:27.207Z,97081.75
2023-01-28T01:02:56.074Z,97080.06
2023-01-28T01:05:24.271Z,97080.38
2023-01-28T01:07:52.395Z,97080.81
2023-01-28T01:10:21.459Z,97073.16
2023-01-28T01:12:51.148Z,97076.13
2023-01-28T01:15:21.438Z,97077.09
2023-01-28T01:17:51.110Z,97076.13
2023-01-28T01:20:22.053Z,97077.25
2023-01-28T01:22:52.290Z,97075.91
2023-01-28T01:25:21.117Z,97084.00
2023-01-28T01:27:51.688Z,97079.03
2023-01-28T01:30:20.551Z,97078.50
2023-01-28T01:32:49.379Z,97085.31
2023-01-28T01:35:18.151Z,97083.69
2023-01-28T01:37:46.450Z,97089.94
2023-01-28T01:40:14.597Z,97085.69
2023-01-28T01:42:42.683Z,97091.56
2023-01-28T01:45:17.365Z,97099.06
2023-01-28T01:47:52.668Z,97094.97
2023-01-28T01:50:30.420Z,97101.13
2023-01-28T01:53:03.934Z,97098.94
2023-01-28T01:55:38.037Z,97098.09
2023-01-28T01:58:11.110Z,97100.56
2023-01-28T02:00:41.396Z,97097.06
2023-01-28T02:03:11.420Z,97103.22
2023-01-28T02:05:40.333Z,97097.28
2023-01-28T02:08:23.882Z,97092.72
2023-01-28T02:10:56.364Z,97095.44
2023-01-28T02:13:29.444Z,97094.19
2023-01-28T02:16:01.308Z,97092.91
2023-01-28T02:18:29.401Z,97097.22
2023-01-28T02:21:30.135Z,97093.06
2023-01-28T02:24:20.204Z,97090.19
2023-01-28T02:27:13.691Z,97094.69
2023-01-28T02:29:51.740Z,97093.06
2023-01-28T02:32:26.435Z,97100.13
2023-01-28T02:35:02.820Z,97101.47
2023-01-28T02:37:39.132Z,97096.94
2023-01-28T02:40:14.378Z,97090.47
2023-01-28T02:42:42.899Z,97106.75
2023-01-28T02:45:22.129Z,97099.00
2023-01-28T02:47:58.016Z,97102.41
2023-01-28T02:50:37.158Z,97108.22
2023-01-28T02:53:39.123Z,97108.44
2023-01-28T02:56:21.970Z,97111.03
2023-01-28T02:59:22.005Z,97102.97
2023-01-28T03:01:58.612Z,97113.84
2023-01-28T03:04:33.238Z,97111.13
2023-01-28T03:07:06.390Z,97106.69
2023-01-28T03:09:35.878Z,97112.31
2023-01-28T03:12:26.385Z,97115.75
2023-01-28T03:15:17.912Z,97117.38
2023-01-28T03:18:11.448Z,97115.13
2023-01-28T03:21:06.341Z,97116.75
2023-01-28T03:24:01.029Z,97117.06
2023-01-28T03:27:19.688Z,97120.31
2023-01-28T03:30:15.751Z,97120.81
2023-01-28T03:33:03.086Z,97123.06
2023-01-28T03:35:53.988Z,97120.47
2023-01-28T03:38:23.411Z,97125.66
2023-01-28T03:40:56.440Z,97119.06
2023-01-28T03:43:25.195Z,97122.41
2023-01-28T03:45:55.477Z,97121.38
2023-01-28T03:48:26.544Z,97126.94
2023-01-28T03:50:57.076Z,97129.97
2023-01-28T03:53:28.121Z,97129.47
2023-01-28T03:55:57.622Z,97131.91
2023-01-28T03:58:40.184Z,97132.56
2023-01-28T04:01:08.314Z,97131.91
2023-01-28T04:03:36.808Z,97129.69
2023-01-28T04:06:11.650Z,97128.56
2023-01-28T04:09:06.544Z,97121.72
2023-01-28T04:11:42.299Z,97123.88
2023-01-28T04:14:11.303Z,97133.59
2023-01-28T04:16:54.775Z,97131.97
2023-01-28T04:19:25.769Z,97136.19
2023-01-28T04:21:56.655Z,97145.63
2023-01-28T04:24:25.809Z,97139.31
2023-01-28T04:26:56.227Z,97141.63
2023-01-28T04:29:24.701Z,97141.53
2023-01-28T04:31:54.539Z,97143.78
2023-01-28T04:34:34.457Z,97147.16
2023-01-28T04:37:16.769Z,97147.66
2023-01-28T04:40:03.231Z,97142.66
2023-01-28T04:42:57.883Z,97155.66
2023-01-28T04:45:48.828Z,97147.50
2023-01-28T04:48:36.576Z,97165.28
2023-01-28T04:51:21.784Z,97160.06
2023-01-28T04:54:09.780Z,97163.13
2023-01-28T04:56:38.822Z,97163.69
2023-01-28T04:59:07.029Z,97158.81
2023-01-28T05:01:35.972Z,97161.16
2023-01-28T05:04:05.691Z,97163.63
2023-01-28T05:06:36.249Z,97160.28
2023-01-28T05:09:11.590Z,97163.75
2023-01-28T05:11:39.686Z,97168.25
2023-01-28T05:14:09.142Z,97166.28
2023-01-28T05:16:44.402Z,97171.13
2023-01-28T05:19:13.133Z,97173.59
2023-01-28T05:21:43.428Z,97171.19
2023-01-28T05:24:33.826Z,97174.47
2023-01-28T05:27:01.891Z,97170.69
2023-01-28T05:29:30.893Z,97179.28
2023-01-28T05:32:00.409Z,97178.19
2023-01-28T05:34:28.447Z,97177.31
2023-01-28T05:36:57.414Z,97171.28
2023-01-28T05:39:39.370Z,97181.91
2023-01-28T05:42:07.438Z,97182.03
2023-01-28T05:44:38.838Z,97183.47
2023-01-28T05:47:16.905Z,97187.53
2023-01-28T05:50:03.725Z,97184.56
2023-01-28T05:52:50.661Z,97195.72
2023-01-28T05:55:26.640Z,97192.28
2023-01-28T05:57:55.148Z,97189.25
2023-01-28T06:00:25.564Z,97191.50
2023-01-28T06:02:54.232Z,97184.41
2023-01-28T06:05:22.859Z,97189.13
2023-01-28T06:07:51.368Z,97193.06
2023-01-28T06:10:19.531Z,97194.69
2023-01-28T06:12:49.821Z,97211.63
2023-01-28T06:15:36.545Z,97202.25
2023-01-28T06:18:16.520Z,97211.41
2023-01-28T06:20:44.581Z,97213.56
2023-01-28T06:23:12.596Z,97226.25
2023-01-28T06:25:40.636Z,97223.72
2023-01-28T06:28:13.703Z,97221.81
2023-01-28T06:30:41.733Z,97234.53
2023-01-28T06:33:09.808Z,97227.00
2023-01-28T06:35:37.848Z,97222.47
2023-01-28T06:38:05.859Z,97222.38
2023-01-28T06:40:34.054Z,97226.13
2023-01-28T06:43:02.180Z,97231.31
2023-01-28T06:45:31.928Z,97242.69
2023-01-28T06:48:00.115Z,97239.34
2023-01-28T06:50:28.104Z,97242.47
2023-01-28T06:52:56.081Z,97241.84
2023-01-28T06:55:24.093Z,97242.69
2023-01-28T06:57:52.059Z,97246.47
2023-01-28T07:00:21.301Z,97246.19
2023-01-28T07:02:50.640Z,97249.81
2023-01-28T07:05:18.785Z,97254.88
2023-01-28T07:07:46.764Z,97251.69
2023-01-28T07:10:15.313Z,97252.66
2023-01-28T07:12:45.757Z,97257.81
2023-01-28T07:15:15.173Z,97263.16
2023-01-28T07:17:43.592Z,97261.97
2023-01-28T07:20:17.218Z,97263.94
2023-01-28T07:22:46.406Z,97263.22
2023-01-28T07:25:16.232Z,97277.28
2023-01-28T07:27:50.154Z,97271.53
2023-01-28T07:30:20.093Z,97269.69
2023-01-28T07:32:48.654Z,97268.78
2023-01-28T07:35:18.164Z,97270.34
2023-01-28T07:37:53.377Z,97272.81
2023-01-28T07:40:21.764Z,97273.22
2023-01-28T07:42:49.816Z,97278.16
2023-01-28T07:45:18.856Z,97278.75
2023-01-28T07:47:54.235Z,97282.47
2023-01-28T07:50:24.038Z,97285.31
2023-01-28T07:52:52.484Z,97286.44
2023-01-28T07:55:20.496Z,97287.59
2023-01-28T07:57:53.590Z,97292.50
2023-01-28T08:00:23.348Z,97288.34
2023-01-28T08:02:56.023Z,97298.53
2023-01-28T08:05:27.190Z,97298.91
2023-01-28T08:07:55.322Z,97294.53
2023-01-28T08:10:23.292Z,97289.59
2023-01-28T08:12:55.757Z,97302.97
2023-01-28T08:15:24.317Z,97304.84
2023-01-28T08:17:54.488Z,97305.50
2023-01-28T08:20:23.294Z,97315.25
2023-01-28T08:22:52.708Z,97318.81
2023-01-28T08:25:20.830Z,97317.56
2023-01-28T08:27:48.853Z,97315.56
2023-01-28T08:30:17.563Z,97313.31
2023-01-28T08:32:45.774Z,97317.81
2023-01-28T08:35:13.780Z,97310.22
2023-01-28T08:37:41.780Z,97308.59
2023-01-28T08:40:13.528Z,97319.50
2023-01-28T08:42:47.257Z,97310.13
2023-01-28T08:45:15.386Z,97312.88
2023-01-28T08:47:50.195Z,97301.13
2023-01-28T08:50:19.204Z,97307.97
2023-01-28T08:52:50.995Z,97305.22
2023-01-28T08:55:20.863Z,97307.25
2023-01-28T08:57:48.884Z,97304.09
2023-01-28T09:00:19.396Z,97314.50
2023-01-28T09:02:47.589Z,97317.47
2023-01-28T09:05:16.042Z,97316.00
2023-01-28T09:07:44.647Z,97325.13
2023-01-28T09:10:13.114Z,97326.63
2023-01-28T09:12:43.116Z,97317.88
2023-01-28T09:15:13.552Z,97328.50
2023-01-28T09:17:41.603Z,97332.09
2023-01-28T09:20:12.756Z,97337.56
2023-01-28T09:22:41.327Z,97336.09
2023-01-28T09:25:10.656Z,97342.84
2023-01-28T09:27:38.756Z,97342.56
2023-01-28T09:30:11.263Z,97348.72
2023-01-28T09:32:39.825Z,97348.88
2023-01-28T09:35:09.015Z,97353.41
2023-01-28T09:37:37.359Z,97355.44
2023-01-28T09:40:07.024Z,97359.38
2023-01-28T09:42:58.999Z,97352.16
2023-01-28T09:45:37.971Z,97355.25
2023-01-28T09:48:13.154Z,97360.94
2023-01-28T09:50:44.786Z,97365.69
2023-01-28T09:53:19.063Z,97370.59
2023-01-28T09:55:50.543Z,97362.56
2023-01-28T09:58:19.026Z,97363.75
2023-01-28T10:00:59.135Z,97370.09
2023-01-28T10:03:40.990Z,97367.03
2023-01-28T10:06:23.331Z,97373.75
2023-01-28T10:09:22.602Z,97370.38
2023-01-28T10:12:09.560Z,97366.38
2023-01-28T10:14:55.534Z,97362.34
2023-01-28T10:17:32.538Z,97355.72
2023-01-28T10:20:06.998Z,97360.94
2023-01-28T10:22:44.396Z,97363.91
2023-01-28T10:25:21.128Z,97350.97
2023-01-28T10:27:51.548Z,97355.06
2023-01-28T10:30:23.370Z,97362.22
2023-01-28T10:32:57.322Z,97348.34
2023-01-28T10:35:26.505Z,97342.56
2023-01-28T10:38:01.403Z,97352.66
2023-01-28T10:40:29.931Z,97346.50
2023-01-28T10:42:57.968Z,97348.28
2023-01-28T10:45:31.631Z,97349.63
2023-01-28T10:48:08.884Z,97340.09
2023-01-28T10:50:37.031Z,97353.41
2023-01-28T10:53:07.075Z,97344.56
2023-01-28T10:55:50.190Z,97348.13
2023-01-28T10:58:21.980Z,97350.59
2023-01-28T11:00:55.638Z,97342.94
2023-01-28T11:03:27.230Z,97357.88
2023-01-28T11:05:56.679Z,97347.03
2023-01-28T11:08:28.152Z,97351.31
2023-01-28T11:10:57.670Z,97351.88
2023-01-28T11:13:28.218Z,97344.06
2023-01-28T11:16:02.822Z,97342.38
2023-01-28T11:18:36.019Z,97347.31
2023-01-28T11:21:08.175Z,97347.31
2023-01-28T11:23:42.820Z,97350.31
2023-01-28T11:26:18.956Z,97349.41
2023-01-28T11:28:47.701Z,97349.56
2023-01-28T11:31:29.477Z,97361.66
2023-01-28T11:34:01.439Z,97349.34
2023-01-28T11:37:02.390Z,97349.56
2023-01-28T11:39:31.315Z,97363.69
2023-01-28T11:42:20.172Z,97345.97
2023-01-28T11:44:49.558Z,97356.03
2023-01-28T11:47:39.544Z,97348.22
2023-01-28T11:50:26.427Z,97351.56
2023-01-28T11:53:12.453Z,97357.56
2023-01-28T11:56:01.650Z,97348.97
2023-01-28T11:58:46.339Z,97343.50
2023-01-28T12:01:25.078Z,97349.69
2023-01-28T12:04:24.152Z,97351.47
2023-01-28T12:07:22.180Z,97354.97
2023-01-28T12:09:59.267Z,97353.06
2023-01-28T12:12:55.322Z,97356.16
2023-01-28T12:16:10.220Z,97354.06
2023-01-28T12:19:08.772Z,97359.69
2023-01-28T12:21:54.748Z,97360.47
2023-01-28T12:24:43.165Z,97361.09
2023-01-28T12:27:29.595Z,97357.44
2023-01-28T12:30:13.709Z,97357.16
2023-01-28T12:32:58.352Z,97356.09
2023-01-28T12:35:44.621Z,97361.88
2023-01-28T12:38:17.313Z,97360.72
2023-01-28T12:41:00.420Z,97362.28
2023-01-28T12:43:53.012Z,97361.63
2023-01-28T12:46:39.493Z,97359.38
2023-01-28T12:56:57.404Z,97353.63
2023-01-28T12:59:35.775Z,97352.59
2023-01-28T13:02:25.856Z,97348.06
2023-01-28T13:05:06.225Z,97347.44
2023-01-28T13:07:40.375Z,97344.06
2023-01-28T13:10:20.739Z,97347.16
2023-01-28T13:12:51.026Z,97347.16
2023-01-28T13:15:20.517Z,97347.31
2023-01-28T13:18:00.293Z,97344.06
2023-01-28T13:20:40.758Z,97344.41
2023-01-28T13:23:25.761Z,97348.72
2023-01-28T13:25:55.879Z,97355.13
2023-01-28T13:28:31.212Z,97349.84
2023-01-28T13:31:05.863Z,97346.25
2023-01-28T13:33:37.522Z,97357.78
2023-01-28T13:36:23.593Z,97354.31
2023-01-28T13:39:03.526Z,97357.84
2023-01-28T13:41:43.763Z,97356.91
2023-01-28T13:44:30.532Z,97354.88
2023-01-28T13:47:12.696Z,97359.06
2023-01-28T13:49:45.890Z,97363.53
2023-01-28T13:52:18.693Z,97360.22
2023-01-28T13:54:54.184Z,97364.19
2023-01-28T13:58:17.202Z,97361.22
2023-01-28T14:01:29.184Z,97367.81
2023-01-28T14:04:43.159Z,97366.13
2023-01-28T14:07:39.772Z,97368.97
2023-01-28T14:10:34.687Z,97377.34
2023-01-28T14:13:35.264Z,97378.03
2023-01-28T14:16:39.649Z,97384.50
2023-01-28T14:19:15.744Z,97381.88
2023-01-28T14:21:44.014Z,97385.84
2023-01-28T14:24:25.094Z,97391.59
2023-01-28T14:27:10.894Z,97393.13
2023-01-28T14:29:51.643Z,97398.56
2023-01-28T14:32:28.619Z,97395.97
2023-01-28T14:35:00.153Z,97401.16
2023-01-28T14:37:32.695Z,97399.06
2023-01-28T14:42:57.340Z,97413.88
2023-01-28T14:45:44.743Z,97411.38
2023-01-28T14:48:26.784Z,97411.38
2023-01-28T14:51:12.830Z,97421.63
2023-01-28T14:54:08.468Z,97423.44
2023-01-28T14:56:50.681Z,97427.66
2023-01-28T14:59:23.158Z,97419.34
2023-01-28T15:01:57.430Z,97430.00
2023-01-28T15:04:30.639Z,97424.09
2023-01-28T15:07:15.946Z,97420.69
2023-01-28T15:09:45.251Z,97430.56
2023-01-28T15:12:15.728Z,97431.91
2023-01-28T15:14:46.900Z,97432.75
2023-01-28T15:17:27.412Z,97437.63
2023-01-28T15:19:58.950Z,97434.25
2023-01-28T15:22:29.643Z,97447.09
2023-01-28T15:24:58.011Z,97441.00
2023-01-28T15:27:30.539Z,97443.13
2023-01-28T15:30:04.661Z,97450.06
2023-01-28T15:32:33.082Z,97445.59
2023-01-28T15:35:03.522Z,97450.63
2023-01-28T15:37:31.695Z,97448.81
2023-01-28T15:40:06.562Z,97445.03
2023-01-28T15:42:35.339Z,97449.59
2023-01-28T15:45:04.577Z,97452.56
2023-01-28T15:47:35.384Z,97457.63
2023-01-28T15:50:08.349Z,97458.38
2023-01-28T15:52:39.251Z,97452.34
2023-01-28T15:55:29.448Z,97462.91
2023-01-28T15:57:57.623Z,97465.72
2023-01-28T16:00:26.998Z,97471.50
2023-01-28T16:02:57.572Z,97466.00
2023-01-28T16:05:30.410Z,97465.97
2023-01-28T16:07:59.311Z,97479.44
2023-01-28T16:10:30.337Z,97473.91
2023-01-28T16:13:07.252Z,97469.41
2023-01-28T16:15:36.639Z,97475.44
2023-01-28T16:18:05.977Z,97470.75
2023-01-28T16:20:36.087Z,97476.97
2023-01-28T16:23:22.355Z,97482.84
2023-01-28T16:26:01.040Z,97475.53
2023-01-28T16:28:30.620Z,97489.56
2023-01-28T16:30:59.692Z,97482.94
2023-01-28T16:33:28.347Z,97490.09
2023-01-28T16:36:07.761Z,97487.16
2023-01-28T16:38:36.625Z,97485.84
2023-01-28T16:41:04.915Z,97489.81
2023-01-28T16:46:09.278Z,97487.47
2023-01-28T16:48:41.108Z,97481.38
2023-01-28T16:51:18.257Z,97478.78
2023-01-28T16:53:48.859Z,97477.16
2023-01-28T16:56:35.925Z,97486.13
2023-01-28T16:59:09.948Z,97485.09
2023-01-28T17:01:38.056Z,97486.97
2023-01-28T17:04:12.013Z,97485.03
2023-01-28T17:06:44.295Z,97491.63
2023-01-28T17:09:13.957Z,97483.81
2023-01-28T17:11:42.663Z,97488.00
2023-01-28T17:14:11.782Z,97492.94
2023-01-28T17:16:39.986Z,97491.00
2023-01-28T17:19:10.352Z,97489.56
2023-01-28T17:21:38.455Z,97498.06
2023-01-28T17:24:11.012Z,97492.25
2023-01-28T17:26:39.181Z,97492.91
2023-01-28T17:29:08.890Z,97490.59
2023-01-28T17:31:37.734Z,97496.13
2023-01-28T17:34:07.087Z,97495.91
2023-01-28T17:36:35.489Z,97505.19
2023-01-28T17:39:03.780Z,97505.84
2023-01-28T17:41:33.623Z,97518.13
2023-01-28T17:44:02.037Z,97522.09
2023-01-28T17:46:30.074Z,97512.94
2023-01-28T17:48:59.730Z,97514.28
2023-01-28T17:51:27.838Z,97516.34
2023-01-28T17:53:55.966Z,97513.38
2023-01-28T17:56:26.699Z,97521.28
2023-01-28T17:58:59.613Z,97520.31
2023-01-28T18:03:58.367Z,97523.19
2023-01-28T18:06:26.537Z,97527.06
2023-01-28T18:08:55.056Z,97519.06
2023-01-28T18:11:23.148Z,97516.31
2023-01-28T18:13:51.281Z,97518.53
2023-01-28T18:16:21.858Z,97515.06
2023-01-28T18:18:51.366Z,97515.06
2023-01-28T18:21:39.927Z,97511.38
2023-01-28T18:24:19.192Z,97523.50
2023-01-28T18:26:47.634Z,97531.09
2023-01-28T18:29:20.281Z,97526.16
2023-01-28T18:31:51.360Z,97529.44
2023-01-28T18:34:19.757Z,97531.47
2023-01-28T18:36:49.579Z,97535.09
2023-01-28T18:39:18.492Z,97525.81
2023-01-28T18:41:46.894Z,97530.72
2023-01-28T18:44:17.036Z,97530.59
2023-01-28T18:46:45.151Z,97533.19
2023-01-28T18:49:15.066Z,97547.22
2023-01-28T18:51:43.789Z,97543.63
2023-01-28T18:54:14.867Z,97544.59
2023-01-28T18:56:44.524Z,97548.69
2023-01-28T18:59:15.024Z,97557.38
2023-01-28T19:01:43.607Z,97550.63
2023-01-28T19:04:12.131Z,97555.31
2023-01-28T19:06:41.529Z,97551.34
2023-01-28T19:09:12.712Z,97552.22
2023-01-28T19:11:42.748Z,97550.69
2023-01-28T19:14:14.251Z,97551.34
2023-01-28T19:16:42.442Z,97550.34
2023-01-28T19:19:11.191Z,97550.28
2023-01-28T19:21:40.999Z,97553.44
2023-01-28T19:24:13.894Z,97549.59
2023-01-28T19:26:44.879Z,97557.19
2023-01-28T19:29:15.669Z,97554.75
2023-01-28T19:31:48.501Z,97561.25
2023-01-28T19:34:16.969Z,97562.81
2023-01-28T19:36:46.779Z,97560.13
2023-01-28T19:39:16.438Z,97566.06
2023-01-28T19:41:45.034Z,97569.47
2023-01-28T19:44:13.401Z,97566.19
2023-01-28T19:46:42.092Z,97559.34
2023-01-28T19:49:10.806Z,97559.66
2023-01-28T19:51:46.188Z,97565.25
2023-01-28T19:54:14.860Z,97566.47
2023-01-28T19:56:42.982Z,97564.25
2023-01-28T19:59:11.271Z,97562.47
2023-01-28T20:01:39.444Z,97561.06
2023-01-28T20:04:07.616Z,97573.50
2023-01-28T20:06:37.030Z,97558.06
2023-01-28T20:09:09.647Z,97566.19
2023-01-28T20:11:37.814Z,97570.00
2023-01-28T20:14:05.926Z,97572.75
2023-01-28T20:16:36.121Z,97577.94
2023-01-28T20:19:06.583Z,97570.13
2023-01-28T20:21:36.586Z,97572.28
2023-01-28T20:24:07.457Z,97574.34
2023-01-28T20:26:38.307Z,97579.63
2023-01-28T20:29:09.902Z,97588.25
2023-01-28T20:31:39.723Z,97595.41
2023-01-28T20:34:08.425Z,97594.34
2023-01-28T20:36:36.619Z,97589.44
2023-01-28T20:39:06.316Z,97601.16
2023-01-28T20:41:34.763Z,97602.25
2023-01-28T20:44:02.991Z,97613.22
2023-01-28T20:46:36.545Z,97622.09
2023-01-28T20:49:10.401Z,97627.91
2023-01-28T20:51:39.292Z,97623.69
2023-01-28T20:54:12.601Z,97629.16
2023-01-28T20:57:06.587Z,97631.66
2023-01-28T20:59:59.249Z,97626.31
2023-01-28T21:02:52.909Z,97625.34
2023-01-28T21:05:20.996Z,97622.34
2023-01-28T21:11:11.899Z,97628.13
2023-01-28T21:13:40.295Z,97623.19
2023-01-28T21:16:33.084Z,97628.38
2023-01-28T21:19:01.823Z,97628.25
2023-01-28T21:21:30.539Z,97624.81
2023-01-28T21:24:01.111Z,97632.75
2023-01-28T21:26:55.754Z,97637.41
2023-01-28T21:29:23.889Z,97640.69
2023-01-28T21:31:52.023Z,97631.25
2023-01-28T21:34:20.207Z,97630.84
2023-01-28T21:36:48.229Z,97634.13
2023-01-28T21:39:16.288Z,97627.69
2023-01-28T21:41:44.312Z,97632.75
2023-01-28T21:44:13.918Z,97617.72
2023-01-28T21:46:41.973Z,97618.53
2023-01-28T21:49:12.145Z,97612.91
2023-01-28T21:51:40.501Z,97614.28
2023-01-28T21:54:12.758Z,97626.47
2023-01-28T21:56:40.835Z,97627.81
2023-01-28T21:59:28.990Z,97615.78
2023-01-28T22:02:00.552Z,97621.69
2023-01-28T22:04:32.587Z,97632.75
2023-01-28T22:07:01.381Z,97634.00
2023-01-28T22:09:29.938Z,97634.69
2023-01-28T22:11:58.027Z,97633.72
2023-01-28T22:14:26.814Z,97638.22
2023-01-28T22:16:54.936Z,97634.00
2023-01-28T22:19:24.380Z,97636.84
2023-01-28T22:21:52.648Z,97628.91
2023-01-28T22:24:24.259Z,97627.81
2023-01-28T22:26:55.358Z,97633.28
2023-01-28T22:29:26.904Z,97621.94
2023-01-28T22:31:55.926Z,97642.34
2023-01-28T22:34:28.582Z,97639.47
2023-01-28T22:36:56.665Z,97630.28
2023-01-28T22:39:24.827Z,97626.88
2023-01-28T22:41:53.023Z,97624.28
2023-01-28T22:44:21.127Z,97626.75
2023-01-28T22:46:52.323Z,97627.69
2023-01-28T22:49:22.026Z,97623.06
2023-01-28T22:51:53.204Z,97624.28
2023-01-28T22:54:21.342Z,97619.88
2023-01-28T22:56:49.402Z,97625.53
2023-01-28T22:59:17.517Z,97623.72
2023-01-28T23:01:45.603Z,97625.66
2023-01-28T23:04:13.791Z,97622.47
2023-01-28T23:06:41.811Z,97624.28
2023-01-28T23:09:11.212Z,97633.84
2023-01-28T23:11:39.309Z,97626.31
2023-01-28T23:14:24.909Z,97620.31
2023-01-28T23:17:10.677Z,97626.75
2023-01-28T23:19:56.643Z,97627.16
2023-01-28T23:22:46.503Z,97617.59
2023-01-28T23:25:16.541Z,97615.38
2023-01-28T23:27:45.509Z,97621.53
2023-01-28T23:30:15.659Z,97618.81
2023-01-28T23:32:49.304Z,97620.03
2023-01-28T23:35:19.519Z,97617.72
2023-01-28T23:37:48.052Z,97615.63
2023-01-28T23:40:18.601Z,97616.59
2023-01-28T23:42:50.314Z,97616.03
2023-01-28T23:45:18.757Z,97620.97
2023-01-28T23:47:46.911Z,97612.91
2023-01-28T23:50:18.818Z,97613.44
2023-01-28T23:52:47.075Z,97618.66
2023-01-28T23:55:15.894Z,97606.50
2023-01-28T23:57:45.397Z,97600.06
